createdAt,value
2018-03-17T08:18:24.052Z,17.70
2018-03-17T08:20:52.912Z,15.80
2018-03-17T08:23:21.827Z,14.97
2018-03-17T08:25:50.079Z,15.45
2018-03-17T08:28:18.362Z,16.48
2018-03-17T08:30:46.998Z,16.00
2018-03-17T08:33:15.858Z,15.68
2018-03-17T08:35:44.710Z,15.52
2018-03-17T08:38:13.569Z,15.32
2018-03-17T08:40:42.430Z,16.25
2018-03-17T08:43:11.278Z,15.63
2018-03-17T08:45:40.145Z,18.02
2018-03-17T08:48:08.995Z,13.80
2018-03-17T08:50:37.845Z,16.23
2018-03-17T08:53:06.714Z,14.13
2018-03-17T08:55:35.561Z,15.40
2018-03-17T08:58:04.400Z,14.93
2018-03-17T09:00:33.267Z,11.80
2018-03-17T09:03:02.110Z,14.10
2018-03-17T09:05:30.957Z,15.55
2018-03-17T09:07:59.773Z,14.75
2018-03-17T09:10:28.635Z,12.02
2018-03-17T09:12:57.469Z,15.85
2018-03-17T09:15:26.342Z,15.98
2018-03-17T09:17:55.203Z,15.15
2018-03-17T09:20:24.064Z,16.48
2018-03-17T09:22:52.927Z,15.38
2018-03-17T09:25:21.753Z,15.30
2018-03-17T09:27:50.630Z,16.90
2018-03-17T09:30:19.449Z,15.70
2018-03-17T09:32:48.336Z,15.48
2018-03-17T09:35:17.178Z,14.35
2018-03-17T09:37:46.079Z,14.68
2018-03-17T09:40:14.916Z,15.35
2018-03-17T09:42:43.764Z,15.10
2018-03-17T09:45:12.770Z,14.90
2018-03-17T09:47:41.612Z,14.90
2018-03-17T09:50:09.907Z,13.60
2018-03-17T09:52:39.247Z,14.00
2018-03-17T09:55:08.248Z,15.65
2018-03-17T09:57:36.921Z,17.73
2018-03-17T10:00:05.550Z,18.73
2018-03-17T10:02:34.545Z,16.97
2018-03-17T10:05:03.420Z,18.27
2018-03-17T10:07:31.695Z,18.50
2018-03-17T10:10:00.319Z,19.98
2018-03-17T10:12:29.169Z,20.08
2018-03-17T10:14:58.172Z,20.08
2018-03-17T10:17:27.035Z,20.02
2018-03-17T10:19:55.310Z,21.73
2018-03-17T10:22:24.334Z,19.83
2018-03-17T10:24:54.672Z,19.92
2018-03-17T10:27:22.201Z,19.27
2018-03-17T10:29:51.035Z,22.10
2018-03-17T10:32:19.698Z,23.10
2018-03-17T10:34:47.182Z,21.65
2018-03-17T10:37:16.176Z,23.70
2018-03-17T10:39:44.148Z,21.55
2018-03-17T10:42:11.984Z,21.33
2018-03-17T10:44:40.652Z,23.42
2018-03-17T10:47:09.350Z,20.65
2018-03-17T10:49:36.864Z,22.67
2018-03-17T10:52:04.383Z,23.92
2018-03-17T10:54:33.396Z,20.92
2018-03-17T10:57:02.042Z,21.95
2018-03-17T10:59:29.546Z,23.75
2018-03-17T11:02:04.069Z,21.95
2018-03-17T11:04:32.452Z,21.90
2018-03-17T11:07:00.671Z,24.25
2018-03-17T11:09:28.203Z,22.10
2018-03-17T11:11:55.699Z,24.48
2018-03-17T11:14:23.571Z,23.00
2018-03-17T11:16:51.501Z,21.90
2018-03-17T11:19:18.972Z,22.48
2018-03-17T11:21:46.543Z,22.25
2018-03-17T11:24:14.133Z,20.95
2018-03-17T11:26:41.618Z,23.48
2018-03-17T11:29:09.896Z,22.83
2018-03-17T11:31:38.770Z,24.15
2018-03-17T11:34:06.273Z,24.50
2018-03-17T11:36:34.949Z,24.52
2018-03-17T11:39:02.465Z,21.67
2018-03-17T11:41:30.004Z,21.90
2018-03-17T11:43:57.483Z,24.48
2018-03-17T11:46:24.947Z,22.45
2018-03-17T11:48:52.495Z,22.98
2018-03-17T11:51:19.974Z,23.52
2018-03-17T11:53:47.490Z,21.37
2018-03-17T11:56:14.964Z,22.33
2018-03-17T11:58:42.480Z,22.90
2018-03-17T12:01:09.949Z,23.83
2018-03-17T12:03:38.871Z,22.37
2018-03-17T12:06:06.358Z,24.73
2018-03-17T12:08:33.888Z,21.30
2018-03-17T12:11:01.433Z,21.98
2018-03-17T12:13:30.068Z,22.37
2018-03-17T12:15:58.333Z,22.30
2018-03-17T12:18:25.860Z,23.12
2018-03-17T12:20:53.372Z,21.45
2018-03-17T12:23:22.421Z,23.40
2018-03-17T12:25:49.939Z,23.15
2018-03-17T12:28:18.216Z,23.65
2018-03-17T12:30:46.111Z,20.48
2018-03-17T12:33:13.642Z,23.17
2018-03-17T12:35:41.932Z,22.17
2018-03-17T12:38:09.447Z,22.95
2018-03-17T12:40:37.742Z,24.35
2018-03-17T12:43:06.365Z,19.00
2018-03-17T12:45:33.891Z,22.70
2018-03-17T12:48:02.185Z,20.83
2018-03-17T12:50:29.703Z,23.83
2018-03-17T12:52:57.242Z,22.10
2018-03-17T12:55:24.739Z,22.70
2018-03-17T12:57:52.990Z,22.02
2018-03-17T13:00:20.487Z,24.15
2018-03-17T13:02:48.737Z,20.58
2018-03-17T13:05:16.641Z,23.12
2018-03-17T13:07:44.115Z,23.00
2018-03-17T13:10:11.639Z,23.05
2018-03-17T13:12:39.896Z,22.13
2018-03-17T13:15:07.478Z,20.62
2018-03-17T13:17:35.757Z,21.35
2018-03-17T13:20:04.027Z,22.73
2018-03-17T13:22:44.376Z,22.95
2018-03-17T13:25:11.876Z,20.55
2018-03-17T13:27:51.252Z,20.35
2018-03-17T13:30:18.779Z,21.87
2018-03-17T13:33:03.056Z,23.23
2018-03-17T13:35:42.448Z,21.85
2018-03-17T13:38:10.711Z,23.35
2018-03-17T13:40:42.668Z,22.30
2018-03-17T13:43:10.181Z,22.00
2018-03-17T13:45:37.695Z,23.23
2018-03-17T13:48:05.960Z,28.10
2018-03-17T13:50:33.467Z,21.12
2018-03-17T13:53:00.990Z,22.58
2018-03-17T13:55:29.234Z,19.45
2018-03-17T13:57:56.732Z,22.27
2018-03-17T14:00:24.997Z,18.35
2018-03-17T14:02:52.537Z,19.70
2018-03-17T14:05:20.000Z,22.37
2018-03-17T14:07:47.480Z,29.83
2018-03-17T14:49:57.033Z,20.67
2018-03-17T14:52:24.592Z,21.27
2018-03-17T14:54:52.084Z,21.27
2018-03-17T14:57:19.615Z,22.35
2018-03-17T14:59:47.102Z,21.77
2018-03-17T15:02:14.647Z,22.33
2018-03-17T15:04:42.105Z,20.90
2018-03-17T15:07:09.630Z,21.08
2018-03-17T15:09:37.123Z,19.45
2018-03-17T15:12:04.618Z,19.60
2018-03-17T15:14:32.140Z,21.20
2018-03-17T15:16:59.646Z,20.25
2018-03-17T15:19:27.918Z,20.40
2018-03-17T15:21:56.191Z,19.52
2018-03-17T15:24:23.698Z,20.92
2018-03-17T15:26:51.191Z,20.50
2018-03-17T15:29:18.704Z,21.23
2018-03-17T15:31:46.191Z,19.92
2018-03-17T15:34:13.685Z,20.62
2018-03-17T15:36:41.169Z,21.25
2018-03-17T15:39:09.583Z,20.35
2018-03-17T15:41:37.057Z,18.80
2018-03-17T15:44:04.567Z,19.70
2018-03-17T15:46:32.806Z,23.23
2018-03-17T15:49:00.339Z,18.23
2018-03-17T15:51:27.878Z,16.90
2018-03-17T15:53:55.403Z,20.80
2018-03-17T15:56:23.670Z,20.70
2018-03-17T15:58:51.190Z,21.02
2018-03-17T16:01:18.690Z,19.75
2018-03-17T16:03:46.212Z,19.05
2018-03-17T16:06:13.715Z,17.15
2018-03-17T16:08:41.998Z,20.88
2018-03-17T16:11:10.291Z,19.25
2018-03-17T16:13:37.804Z,19.87
2018-03-17T16:16:05.315Z,18.20
2018-03-17T16:18:32.853Z,18.62
2018-03-17T16:21:01.120Z,18.30
2018-03-17T16:23:28.624Z,17.65
2018-03-17T16:25:56.109Z,20.58
2018-03-17T16:28:23.622Z,19.87
2018-03-17T16:30:51.934Z,18.17
2018-03-17T16:33:19.480Z,17.40
2018-03-17T16:35:46.950Z,18.17
2018-03-17T16:38:14.458Z,19.37
2018-03-17T16:40:42.690Z,17.60
2018-03-17T16:43:10.234Z,17.77
2018-03-17T16:45:37.724Z,17.12
2018-03-17T16:48:05.258Z,16.02
2018-03-17T16:50:32.731Z,17.55
2018-03-17T16:53:00.276Z,17.17
2018-03-17T16:55:27.765Z,17.30
2018-03-17T16:57:55.279Z,17.85
2018-03-17T17:00:22.901Z,18.10
2018-03-17T17:02:50.423Z,17.30
2018-03-17T17:05:17.928Z,17.60
2018-03-17T17:07:46.194Z,18.50
2018-03-17T17:10:13.707Z,16.77
2018-03-17T17:12:41.190Z,19.00
2018-03-17T17:15:08.699Z,17.23
2018-03-17T17:17:36.959Z,18.45
2018-03-17T17:20:05.229Z,17.10
2018-03-17T17:22:33.548Z,17.65
2018-03-17T17:25:01.022Z,17.37
2018-03-17T17:27:28.586Z,16.12
2018-03-17T17:29:56.048Z,17.55
2018-03-17T17:32:23.579Z,15.55
2018-03-17T17:34:51.070Z,16.85
2018-03-17T17:37:18.588Z,18.35
2018-03-17T17:39:46.064Z,15.95
2018-03-17T17:42:13.581Z,15.82
2018-03-17T17:44:41.835Z,15.90
2018-03-17T17:47:09.330Z,15.23
2018-03-17T17:49:37.615Z,15.60
2018-03-17T17:52:05.102Z,15.63
2018-03-17T17:54:32.628Z,18.05
2018-03-17T17:57:00.871Z,17.35
2018-03-17T17:59:28.386Z,17.15
2018-03-17T18:01:55.891Z,15.68
2018-03-17T18:04:23.363Z,14.95
2018-03-17T18:06:51.629Z,16.37
2018-03-17T18:09:19.154Z,16.48
2018-03-17T18:11:46.647Z,16.80
2018-03-17T18:14:14.261Z,17.15
2018-03-17T18:16:41.752Z,17.48
2018-03-17T18:19:09.309Z,18.20
2018-03-17T18:21:36.823Z,17.58
2018-03-17T18:24:04.365Z,19.00
2018-03-17T18:26:32.061Z,17.92
2018-03-17T18:28:59.587Z,19.77
2018-03-17T18:31:27.842Z,17.42
2018-03-17T18:33:55.353Z,19.00
2018-03-17T18:36:22.908Z,16.15
2018-03-17T18:38:50.411Z,15.48
2018-03-17T18:41:17.917Z,20.50
2018-03-17T18:43:45.430Z,18.25
2018-03-17T18:46:12.927Z,19.55
2018-03-17T18:48:41.207Z,19.85
2018-03-17T18:51:08.701Z,19.90
2018-03-17T18:53:36.187Z,20.23
2018-03-17T18:56:03.698Z,20.00
2018-03-17T18:58:31.927Z,19.17
2018-03-17T19:00:59.440Z,19.08
2018-03-17T19:03:26.916Z,23.17
2018-03-17T19:05:54.444Z,19.50
2018-03-17T19:08:21.953Z,19.92
2018-03-17T19:10:50.932Z,21.37
2018-03-17T19:13:18.466Z,20.45
2018-03-17T19:15:45.987Z,21.25
2018-03-17T19:18:13.523Z,19.87
2018-03-17T19:20:41.016Z,18.90
2018-03-17T19:23:09.320Z,22.13
2018-03-17T19:25:36.799Z,21.42
2018-03-17T19:28:04.314Z,19.55
2018-03-17T19:30:32.592Z,19.40
2018-03-17T19:33:00.881Z,23.50
2018-03-17T19:35:28.459Z,21.73
2018-03-17T19:37:55.931Z,23.00
2018-03-17T19:40:23.428Z,19.95
2018-03-17T19:42:50.927Z,20.48
2018-03-17T19:45:18.435Z,23.00
2018-03-17T19:47:45.929Z,22.90
2018-03-17T19:50:14.228Z,23.48
2018-03-17T19:52:41.712Z,22.52
2018-03-17T19:55:09.224Z,21.12
2018-03-17T19:57:37.503Z,24.20
2018-03-17T20:00:05.750Z,21.27
2018-03-17T20:02:33.276Z,22.23
2018-03-17T20:05:00.748Z,20.88
2018-03-17T20:07:28.276Z,20.52
2018-03-17T20:09:55.768Z,18.08
2018-03-17T20:12:23.288Z,19.62
2018-03-17T20:14:50.821Z,18.90
2018-03-17T20:17:19.091Z,18.87
2018-03-17T20:19:47.352Z,17.75
2018-03-17T20:22:14.838Z,19.55
2018-03-17T20:24:43.103Z,21.42
2018-03-17T20:27:10.627Z,18.65
2018-03-17T20:29:38.103Z,20.48
2018-03-17T20:32:05.632Z,21.30
2018-03-17T20:34:33.158Z,19.35
2018-03-17T20:37:01.438Z,19.02
2018-03-17T20:39:29.745Z,18.73
2018-03-17T20:41:57.224Z,18.77
2018-03-17T20:44:24.739Z,18.25
2018-03-17T20:46:52.253Z,19.15
2018-03-17T20:49:19.758Z,14.15
2018-03-17T20:51:47.238Z,19.17
2018-03-17T20:54:14.778Z,17.15
2018-03-17T20:56:42.281Z,21.08
2018-03-17T20:59:09.776Z,18.73
2018-03-17T21:01:38.048Z,20.00
2018-03-17T21:04:05.568Z,17.33
2018-03-17T21:06:33.080Z,15.45
2018-03-17T21:09:01.344Z,18.73
2018-03-17T21:11:29.582Z,19.60
2018-03-17T21:13:57.120Z,18.92
2018-03-17T21:16:24.632Z,16.55
2018-03-17T21:18:52.128Z,19.58
2018-03-17T21:21:19.642Z,17.08
2018-03-17T21:23:47.132Z,17.77
2018-03-17T21:26:14.668Z,19.65
2018-03-17T21:28:42.173Z,16.25
2018-03-17T21:31:09.694Z,19.10
2018-03-17T21:33:38.003Z,19.12
2018-03-17T21:36:05.483Z,17.80
2018-03-17T21:38:32.996Z,19.17
2018-03-17T21:41:01.272Z,18.90
2018-03-17T21:43:29.541Z,19.52
2018-03-17T21:45:57.828Z,21.37
2018-03-17T21:48:26.116Z,19.05
2018-03-17T21:50:53.630Z,16.75
2018-03-17T21:53:21.128Z,19.30
2018-03-17T21:55:49.405Z,17.48
2018-03-17T21:58:18.834Z,19.90
2018-03-17T22:00:46.404Z,16.25
2018-03-17T22:03:13.863Z,18.45
2018-03-17T22:05:41.375Z,14.40
2018-03-17T22:08:09.672Z,21.10
2018-03-17T22:10:37.167Z,18.33
2018-03-17T22:13:04.685Z,17.50
2018-03-17T22:15:32.939Z,19.20
2018-03-17T22:18:00.443Z,19.60
2018-03-17T22:20:27.942Z,20.35
2018-03-17T22:22:55.424Z,19.27
2018-03-17T22:25:23.701Z,17.80
2018-03-17T22:27:51.958Z,19.65
2018-03-17T22:30:19.495Z,19.70
2018-03-17T22:32:46.988Z,18.62
2018-03-17T22:35:14.512Z,18.85
2018-03-17T22:37:42.002Z,18.67
2018-03-17T22:40:09.507Z,18.10
2018-03-17T22:42:37.012Z,18.55
2018-03-17T22:45:04.539Z,17.15
2018-03-17T22:47:32.014Z,18.83
2018-03-17T22:49:59.492Z,16.90
2018-03-17T22:52:27.040Z,18.87
2018-03-17T22:54:54.531Z,18.80
2018-03-17T22:57:22.818Z,18.90
2018-03-17T22:59:51.074Z,18.05
2018-03-17T23:02:19.362Z,18.87
2018-03-17T23:04:47.609Z,19.20
2018-03-17T23:07:15.116Z,19.00
2018-03-17T23:09:42.621Z,20.05
2018-03-17T23:12:10.160Z,19.10
2018-03-17T23:14:37.632Z,16.87
2018-03-17T23:17:05.138Z,19.35
2018-03-17T23:19:33.422Z,19.95
2018-03-17T23:22:00.969Z,18.02
2018-03-17T23:24:29.260Z,17.87
2018-03-17T23:26:57.501Z,18.33
2018-03-17T23:29:25.023Z,20.62
2018-03-17T23:31:52.514Z,17.75
2018-03-17T23:34:20.033Z,20.00
2018-03-17T23:36:47.509Z,19.08
2018-03-17T23:39:15.056Z,17.77
2018-03-17T23:41:42.533Z,17.75
2018-03-17T23:44:10.016Z,19.05
2018-03-17T23:46:37.530Z,17.70
2018-03-17T23:49:05.046Z,19.42
2018-03-17T23:51:33.324Z,17.48
2018-03-17T23:54:01.571Z,19.42
2018-03-17T23:56:29.094Z,17.58
2018-03-17T23:58:56.570Z,18.85
